createdAt,value
2022-10-17T00:00:37.323Z,11.07
2022-10-17T00:03:04.407Z,11.05
2022-10-17T00:05:30.997Z,11.03
2022-10-17T00:07:57.568Z,11.02
2022-10-17T00:10:24.804Z,11.00
2022-10-17T00:12:51.932Z,10.96
2022-10-17T00:15:20.577Z,10.97
2022-10-17T00:17:47.269Z,10.96
2022-10-17T00:20:15.376Z,10.94
2022-10-17T00:22:42.261Z,10.92
2022-10-17T00:25:09.310Z,10.91
2022-10-17T00:27:40.662Z,10.89
2022-10-17T00:30:11.374Z,10.86
2022-10-17T00:32:37.919Z,10.84
2022-10-17T00:35:04.767Z,10.82
2022-10-17T00:37:32.380Z,10.81
2022-10-17T00:39:59.200Z,10.79
2022-10-17T00:42:27.219Z,10.78
2022-10-17T00:45:08.714Z,10.78
2022-10-17T00:47:36.898Z,10.77
2022-10-17T00:50:06.692Z,10.77
2022-10-17T00:52:34.125Z,10.77
2022-10-17T00:55:16.588Z,10.76
2022-10-17T00:57:45.223Z,10.73
2022-10-17T01:00:13.236Z,10.72
2022-10-17T01:02:39.949Z,10.70
2022-10-17T01:05:07.683Z,10.71
2022-10-17T01:07:37.182Z,10.70
2022-10-17T01:10:05.429Z,10.66
2022-10-17T01:13:16.532Z,10.66
2022-10-17T01:16:09.494Z,10.64
2022-10-17T01:19:11.379Z,10.63
2022-10-17T01:21:37.945Z,10.60
2022-10-17T01:24:16.586Z,10.60
2022-10-17T01:27:04.941Z,10.58
2022-10-17T01:30:00.409Z,10.59
2022-10-17T01:32:41.472Z,10.56
2022-10-17T01:35:11.058Z,10.56
2022-10-17T01:37:43.515Z,10.55
2022-10-17T01:40:16.534Z,10.54
2022-10-17T01:42:57.601Z,10.50
2022-10-17T01:45:37.459Z,10.49
2022-10-17T01:48:11.573Z,10.49
2022-10-17T01:50:43.609Z,10.44
2022-10-17T01:53:25.594Z,10.42
2022-10-17T01:55:54.800Z,10.42
2022-10-17T01:58:40.343Z,10.39
2022-10-17T02:01:09.793Z,10.38
2022-10-17T02:03:37.665Z,10.38
2022-10-17T02:06:04.632Z,10.37
2022-10-17T02:08:46.333Z,10.37
2022-10-17T02:11:25.008Z,10.34
2022-10-17T02:13:58.921Z,10.35
2022-10-17T02:16:38.282Z,10.35
2022-10-17T02:19:29.183Z,10.34
2022-10-17T02:22:26.302Z,10.33
2022-10-17T02:24:56.573Z,10.33
2022-10-17T02:27:33.331Z,10.32
2022-10-17T02:30:08.697Z,10.31
2022-10-17T02:32:45.455Z,10.30
2022-10-17T02:35:16.200Z,10.28
2022-10-17T02:37:45.891Z,10.27
2022-10-17T02:40:15.291Z,10.27
2022-10-17T02:42:45.081Z,10.24
2022-10-17T02:45:12.927Z,10.23
2022-10-17T02:47:57.379Z,10.19
2022-10-17T02:50:33.520Z,10.18
2022-10-17T02:53:09.008Z,10.15
2022-10-17T02:55:43.591Z,10.16
2022-10-17T02:58:20.755Z,10.16
2022-10-17T03:00:48.020Z,10.16
2022-10-17T03:03:22.442Z,10.16
2022-10-17T03:05:49.129Z,10.15
2022-10-17T03:08:15.785Z,10.09
2022-10-17T03:10:42.301Z,10.13
2022-10-17T03:13:08.942Z,10.13
2022-10-17T03:15:35.616Z,10.12
2022-10-17T03:18:02.477Z,10.12
2022-10-17T03:20:29.257Z,10.09
2022-10-17T03:22:55.791Z,10.09
2022-10-17T03:25:22.340Z,10.10
2022-10-17T03:27:48.953Z,10.10
2022-10-17T03:30:15.510Z,10.08
2022-10-17T03:32:42.043Z,10.07
2022-10-17T03:35:13.990Z,10.04
2022-10-17T03:37:41.767Z,10.04
2022-10-17T03:40:08.732Z,10.02
2022-10-17T03:42:35.276Z,10.02
2022-10-17T03:45:01.881Z,10.00
2022-10-17T03:47:29.452Z,10.00
2022-10-17T03:49:56.138Z,9.98
2022-10-17T03:52:22.865Z,9.98
2022-10-17T03:54:50.874Z,9.95
2022-10-17T03:57:18.804Z,9.93
2022-10-17T03:59:45.340Z,9.91
2022-10-17T04:02:11.932Z,9.91
2022-10-17T04:04:38.572Z,9.89
2022-10-17T04:07:05.142Z,9.87
2022-10-17T04:09:31.692Z,9.87
2022-10-17T04:11:58.263Z,9.83
2022-10-17T04:14:24.796Z,9.82
2022-10-17T04:16:51.499Z,9.80
2022-10-17T04:19:18.046Z,9.78
2022-10-17T04:21:44.585Z,9.79
2022-10-17T04:24:12.161Z,9.78
2022-10-17T04:26:38.705Z,9.78
2022-10-17T04:29:05.256Z,9.78
2022-10-17T04:31:32.494Z,9.78
2022-10-17T04:33:59.243Z,9.78
2022-10-17T04:36:26.789Z,9.77
2022-10-17T04:38:55.241Z,9.75
2022-10-17T04:41:21.795Z,9.74
2022-10-17T04:43:51.040Z,9.74
2022-10-17T04:46:18.570Z,9.73
2022-10-17T04:48:45.344Z,9.71
2022-10-17T04:51:14.650Z,9.70
2022-10-17T04:53:42.555Z,9.70
2022-10-17T04:56:15.417Z,9.68
2022-10-17T04:58:43.393Z,9.65
2022-10-17T05:01:22.900Z,9.65
2022-10-17T05:03:49.830Z,9.64
2022-10-17T05:06:22.976Z,9.63
2022-10-17T05:08:49.728Z,9.61
2022-10-17T05:11:23.683Z,9.60
2022-10-17T05:13:52.796Z,9.58
2022-10-17T05:16:20.154Z,9.58
2022-10-17T05:18:53.004Z,9.57
2022-10-17T05:21:20.834Z,9.54
2022-10-17T05:23:47.504Z,9.55
2022-10-17T05:26:14.670Z,9.52
2022-10-17T05:28:41.624Z,9.52
2022-10-17T05:31:10.490Z,9.52
2022-10-17T05:33:38.345Z,9.51
2022-10-17T05:36:06.068Z,9.49
2022-10-17T05:38:32.860Z,9.48
2022-10-17T05:41:00.929Z,9.42
2022-10-17T05:43:29.546Z,9.43
2022-10-17T05:45:56.442Z,9.41
2022-10-17T05:48:24.022Z,9.41
2022-10-17T05:50:57.301Z,9.40
2022-10-17T05:53:23.842Z,9.41
2022-10-17T05:56:01.236Z,9.37
2022-10-17T06:01:15.228Z,9.41
2022-10-17T06:03:41.760Z,9.39
2022-10-17T06:06:13.041Z,9.42
2022-10-17T06:08:40.020Z,9.45
2022-10-17T06:11:09.893Z,9.46
2022-10-17T06:13:38.342Z,9.52
2022-10-17T06:16:05.549Z,9.53
2022-10-17T06:18:33.581Z,9.56
2022-10-17T06:21:06.202Z,9.54
2022-10-17T06:23:32.925Z,9.60
2022-10-17T06:26:04.450Z,9.59
2022-10-17T06:28:31.185Z,9.62
2022-10-17T06:30:57.871Z,9.68
2022-10-17T06:33:24.534Z,9.70
2022-10-17T06:35:52.933Z,9.75
2022-10-17T06:38:19.825Z,9.78
2022-10-17T06:40:46.402Z,9.81
2022-10-17T06:43:13.225Z,9.85
2022-10-17T06:45:40.438Z,9.91
2022-10-17T06:48:08.158Z,9.96
2022-10-17T06:50:35.623Z,10.04
2022-10-17T06:53:02.209Z,10.04
2022-10-17T06:55:28.762Z,10.12
2022-10-17T06:57:58.839Z,10.19
2022-10-17T07:00:26.727Z,10.23
2022-10-17T07:02:53.260Z,10.32
2022-10-17T07:05:19.878Z,10.39
2022-10-17T07:07:48.578Z,10.40
2022-10-17T07:10:17.359Z,10.45
2022-10-17T07:12:45.812Z,10.50
2022-10-17T07:15:12.792Z,10.80
2022-10-17T07:17:39.462Z,11.35
2022-10-17T07:20:06.618Z,12.00
2022-10-17T07:22:33.158Z,12.42
2022-10-17T07:24:59.721Z,12.81
2022-10-17T07:27:26.531Z,13.28
2022-10-17T07:29:53.152Z,13.44
2022-10-17T07:32:19.687Z,13.42
2022-10-17T07:34:46.271Z,13.64
2022-10-17T07:37:12.824Z,14.17
2022-10-17T07:39:40.050Z,14.70
2022-10-17T07:42:07.815Z,14.91
2022-10-17T07:44:35.509Z,15.37
2022-10-17T07:47:02.508Z,15.50
2022-10-17T07:49:29.474Z,15.92
2022-10-17T07:51:56.076Z,16.53
2022-10-17T07:54:22.736Z,17.22
2022-10-17T07:56:50.674Z,17.48
2022-10-17T07:59:20.231Z,17.98
2022-10-17T08:01:46.935Z,18.56
2022-10-17T08:04:13.498Z,18.89
2022-10-17T08:06:40.103Z,19.31
2022-10-17T08:09:06.675Z,19.28
2022-10-17T08:11:33.253Z,19.57
2022-10-17T08:13:59.864Z,19.52
2022-10-17T08:16:26.574Z,19.90
2022-10-17T08:18:53.318Z,20.31
2022-10-17T08:21:19.872Z,20.33
2022-10-17T08:23:46.553Z,20.74
2022-10-17T08:26:16.856Z,21.34
2022-10-17T08:28:43.619Z,21.27
2022-10-17T08:31:15.945Z,21.41
2022-10-17T08:33:42.584Z,21.54
2022-10-17T08:36:14.728Z,21.55
2022-10-17T08:38:43.669Z,21.11
2022-10-17T08:41:35.886Z,21.06
2022-10-17T08:44:31.121Z,21.27
2022-10-17T08:47:01.384Z,21.06
2022-10-17T08:49:43.652Z,21.85
2022-10-17T08:52:25.687Z,22.07
2022-10-17T08:54:52.592Z,22.12
2022-10-17T08:57:19.453Z,22.37
2022-10-17T08:59:52.042Z,22.84
2022-10-17T09:02:27.423Z,22.85
2022-10-17T09:05:14.631Z,22.76
2022-10-17T09:08:09.173Z,22.71
2022-10-17T09:10:57.354Z,23.14
2022-10-17T09:13:59.099Z,23.53
2022-10-17T09:16:40.374Z,24.11
2022-10-17T09:19:19.412Z,23.76
2022-10-17T09:21:53.612Z,23.26
2022-10-17T09:24:44.531Z,23.40
2022-10-17T09:27:31.577Z,23.60
2022-10-17T09:30:46.690Z,23.12
2022-10-17T09:33:28.257Z,23.10
2022-10-17T09:36:04.896Z,23.02
2022-10-17T09:38:39.691Z,23.64
2022-10-17T09:41:39.106Z,24.42
2022-10-17T09:44:22.525Z,24.08
2022-10-17T09:47:19.637Z,24.75
2022-10-17T09:49:47.869Z,23.83
2022-10-17T09:52:25.353Z,23.77
2022-10-17T09:55:06.885Z,24.16
2022-10-17T09:57:53.636Z,23.37
2022-10-17T10:00:27.044Z,23.76
2022-10-17T10:03:18.193Z,23.52
2022-10-17T10:06:18.171Z,23.52
2022-10-17T10:08:58.431Z,24.11
2022-10-17T10:11:44.478Z,23.85
2022-10-17T10:14:13.959Z,23.94
2022-10-17T10:16:43.884Z,23.83
2022-10-17T10:19:26.302Z,23.43
2022-10-17T10:22:01.516Z,23.37
2022-10-17T10:24:30.988Z,23.52
2022-10-17T10:27:04.046Z,23.01
2022-10-17T10:29:49.871Z,24.61
2022-10-17T10:32:27.206Z,24.37
2022-10-17T10:34:57.362Z,24.46
2022-10-17T10:37:24.014Z,24.40
2022-10-17T10:39:54.629Z,24.01
2022-10-17T10:42:41.301Z,23.66
2022-10-17T10:45:42.896Z,23.74
2022-10-17T10:48:27.652Z,24.19
2022-10-17T10:50:59.854Z,24.10
2022-10-17T10:53:38.793Z,23.90
2022-10-17T10:56:24.415Z,24.19
2022-10-17T10:59:09.159Z,23.90
2022-10-17T11:02:00.872Z,23.52
2022-10-17T11:04:49.799Z,23.40
2022-10-17T11:07:22.643Z,22.29
2022-10-17T11:10:12.106Z,22.45
2022-10-17T11:12:56.265Z,21.74
2022-10-17T11:15:36.647Z,21.11
2022-10-17T11:18:08.419Z,20.87
2022-10-17T11:20:53.350Z,21.35
2022-10-17T11:23:42.152Z,21.70
2022-10-17T11:26:19.784Z,21.59
2022-10-17T11:28:46.423Z,21.84
2022-10-17T11:31:15.034Z,22.43
2022-10-17T11:34:19.603Z,22.82
2022-10-17T11:36:50.727Z,23.67
2022-10-17T11:39:20.397Z,23.60
2022-10-17T11:42:12.891Z,23.75
2022-10-17T11:44:41.307Z,23.75
2022-10-17T11:47:19.984Z,24.41
2022-10-17T11:49:53.223Z,24.24
2022-10-17T11:55:28.272Z,24.64
2022-10-17T11:58:10.097Z,24.41
2022-10-17T12:00:51.709Z,24.26
2022-10-17T12:03:33.427Z,24.24
2022-10-17T12:06:29.502Z,24.13
2022-10-17T12:09:10.430Z,24.45
2022-10-17T12:11:46.132Z,24.88
2022-10-17T12:14:34.486Z,24.21
2022-10-17T12:17:02.240Z,24.75
2022-10-17T12:19:38.089Z,24.58
2022-10-17T12:22:28.660Z,24.74
2022-10-17T12:25:01.272Z,25.29
2022-10-17T12:27:34.324Z,25.33
2022-10-17T12:30:13.515Z,24.91
2022-10-17T12:33:12.365Z,25.11
2022-10-17T12:35:39.404Z,25.20
2022-10-17T12:38:06.065Z,25.34
2022-10-17T12:40:35.683Z,25.67
2022-10-17T12:43:23.392Z,25.78
2022-10-17T12:46:04.870Z,24.52
2022-10-17T12:48:34.369Z,24.12
2022-10-17T12:51:36.120Z,23.51
2022-10-17T12:54:12.002Z,23.33
2022-10-17T12:56:46.895Z,23.19
2022-10-17T12:59:33.916Z,22.92
2022-10-17T13:02:03.450Z,22.72
2022-10-17T13:04:31.666Z,22.56
2022-10-17T13:06:59.264Z,22.26
2022-10-17T13:09:36.798Z,22.23
2022-10-17T13:12:10.871Z,22.20
2022-10-17T13:14:41.629Z,22.80
2022-10-17T13:17:22.529Z,23.24
2022-10-17T13:19:49.198Z,23.30
2022-10-17T13:22:24.712Z,23.69
2022-10-17T13:24:53.227Z,23.93
2022-10-17T13:27:32.035Z,23.92
2022-10-17T13:30:01.279Z,23.23
2022-10-17T13:32:37.740Z,22.92
2022-10-17T13:35:13.487Z,22.64
2022-10-17T13:37:42.510Z,22.69
2022-10-17T13:40:50.705Z,22.61
2022-10-17T13:43:19.105Z,22.62
2022-10-17T13:46:32.645Z,22.55
2022-10-17T13:48:54.019Z,22.37
2022-10-17T13:51:20.931Z,22.34
2022-10-17T13:53:47.841Z,22.29
2022-10-17T13:56:29.628Z,22.33
2022-10-17T13:59:00.107Z,22.17
2022-10-17T14:01:28.697Z,22.03
2022-10-17T14:04:07.860Z,21.90
2022-10-17T14:09:16.433Z,21.86
2022-10-17T14:11:44.636Z,21.72
2022-10-17T14:14:58.355Z,21.76
2022-10-17T14:17:27.699Z,22.00
2022-10-17T14:20:26.552Z,22.14
2022-10-17T14:23:17.615Z,22.21
2022-10-17T14:25:39.683Z,22.21
2022-10-17T14:28:12.750Z,22.17
2022-10-17T14:30:55.571Z,22.20
2022-10-17T14:33:31.669Z,22.29
2022-10-17T14:36:00.885Z,22.20
2022-10-17T14:38:29.170Z,22.10
2022-10-17T14:41:30.573Z,22.07
2022-10-17T14:43:57.923Z,21.84
2022-10-17T14:46:25.420Z,21.79
2022-10-17T14:48:54.816Z,21.68
2022-10-17T14:51:21.632Z,21.63
2022-10-17T14:54:22.218Z,21.56
2022-10-17T14:56:52.449Z,21.48
2022-10-17T14:59:51.410Z,21.37
2022-10-17T15:02:11.589Z,21.26
2022-10-17T15:04:38.301Z,21.13
2022-10-17T15:07:05.073Z,20.99
2022-10-17T15:09:31.713Z,20.93
2022-10-17T15:12:02.880Z,20.84
2022-10-17T15:14:29.430Z,20.75
2022-10-17T15:16:55.963Z,20.66
2022-10-17T15:19:22.543Z,20.58
2022-10-17T15:21:49.202Z,20.50
2022-10-17T15:24:15.896Z,20.45
2022-10-17T15:26:44.223Z,20.41
2022-10-17T15:29:15.290Z,20.35
2022-10-17T15:31:41.988Z,20.30
2022-10-17T15:34:08.568Z,20.24
2022-10-17T15:36:48.165Z,20.16
2022-10-17T15:39:15.986Z,20.09
2022-10-17T15:41:42.586Z,20.06
2022-10-17T15:44:09.098Z,20.03
2022-10-17T15:46:37.859Z,19.98
2022-10-17T15:49:10.060Z,19.90
2022-10-17T15:51:36.638Z,19.84
2022-10-17T15:54:04.898Z,19.79
2022-10-17T15:56:35.818Z,19.71
2022-10-17T15:59:03.874Z,19.65
2022-10-17T16:01:33.762Z,19.57
2022-10-17T16:04:00.963Z,19.49
2022-10-17T16:06:28.340Z,19.41
2022-10-17T16:08:55.023Z,19.34
2022-10-17T16:11:35.687Z,19.27
2022-10-17T16:14:07.829Z,19.10
2022-10-17T16:16:34.716Z,19.00
2022-10-17T16:19:02.740Z,18.90
2022-10-17T16:21:32.672Z,18.81
2022-10-17T16:24:00.579Z,18.72
2022-10-17T16:26:28.216Z,18.66
2022-10-17T16:28:58.292Z,18.61
2022-10-17T16:31:29.320Z,18.60
2022-10-17T16:33:57.600Z,18.55
2022-10-17T16:36:24.423Z,18.54
2022-10-17T16:38:51.581Z,18.47
2022-10-17T16:41:28.714Z,18.42
2022-10-17T16:43:57.988Z,18.34
2022-10-17T16:46:26.194Z,18.23
2022-10-17T16:48:53.092Z,18.11
2022-10-17T16:51:20.625Z,18.09
2022-10-17T16:53:50.190Z,18.00
2022-10-17T16:56:19.250Z,17.91
2022-10-17T16:58:46.700Z,17.86
2022-10-17T17:01:23.230Z,17.82
2022-10-17T17:03:50.737Z,17.77
2022-10-17T17:06:20.706Z,17.71
2022-10-17T17:08:48.096Z,17.64
2022-10-17T17:11:16.728Z,17.64
2022-10-17T17:13:43.501Z,17.58
2022-10-17T17:16:15.768Z,17.55
2022-10-17T17:18:43.476Z,17.52
2022-10-17T17:21:11.011Z,17.46
2022-10-17T17:23:39.730Z,17.35
2022-10-17T17:26:21.581Z,17.34
2022-10-17T17:28:53.478Z,17.35
2022-10-17T17:31:23.529Z,17.33
2022-10-17T17:33:51.149Z,17.31
2022-10-17T17:36:22.914Z,17.30
2022-10-17T17:38:51.161Z,17.29
2022-10-17T17:41:19.263Z,17.23
2022-10-17T17:43:47.305Z,17.16
2022-10-17T17:46:16.640Z,17.15
2022-10-17T17:48:46.036Z,17.14
2022-10-17T17:51:14.367Z,17.10
2022-10-17T17:53:41.245Z,17.04
2022-10-17T17:56:16.722Z,16.95
2022-10-17T17:58:45.815Z,16.89
2022-10-17T18:04:25.638Z,16.83
2022-10-17T18:06:52.597Z,16.87
2022-10-17T18:09:20.378Z,16.83
2022-10-17T18:11:47.365Z,16.80
2022-10-17T18:14:14.185Z,16.82
2022-10-17T18:16:49.624Z,16.82
2022-10-17T18:19:17.104Z,16.79
2022-10-17T18:21:44.410Z,16.70
2022-10-17T18:24:11.227Z,16.68
2022-10-17T18:26:40.988Z,16.63
2022-10-17T18:29:07.821Z,16.52
2022-10-17T18:31:37.525Z,16.51
2022-10-17T18:34:06.017Z,16.49
2022-10-17T18:36:34.598Z,16.48
2022-10-17T18:39:02.716Z,16.49
2022-10-17T18:41:30.137Z,16.50
2022-10-17T18:43:57.754Z,16.54
2022-10-17T18:46:30.393Z,16.50
2022-10-17T18:48:57.368Z,16.46
2022-10-17T18:51:26.038Z,16.46
2022-10-17T18:53:55.741Z,16.43
2022-10-17T18:56:23.817Z,16.42
2022-10-17T18:58:51.238Z,16.41
2022-10-17T19:01:20.909Z,16.48
2022-10-17T19:03:49.776Z,16.50
2022-10-17T19:06:19.476Z,16.45
2022-10-17T19:08:46.884Z,16.45
2022-10-17T19:11:25.755Z,16.46
2022-10-17T19:13:53.261Z,16.37
2022-10-17T19:16:25.255Z,16.37
2022-10-17T19:18:54.630Z,16.36
2022-10-17T19:21:22.297Z,16.31
2022-10-17T19:23:53.381Z,16.30
2022-10-17T19:26:21.130Z,16.29
2022-10-17T19:28:48.507Z,16.24
2022-10-17T19:31:17.963Z,16.20
2022-10-17T19:33:45.381Z,16.23
2022-10-17T19:36:13.498Z,16.22
2022-10-17T19:38:40.162Z,16.17
2022-10-17T19:41:08.936Z,16.13
2022-10-17T19:43:37.566Z,16.09
2022-10-17T19:46:06.944Z,16.06
2022-10-17T19:48:36.948Z,16.07
2022-10-17T19:51:10.164Z,16.07
2022-10-17T19:53:37.608Z,16.02
2022-10-17T19:56:05.152Z,16.05
2022-10-17T19:58:34.201Z,16.03
2022-10-17T20:01:01.400Z,15.99
2022-10-17T20:03:28.911Z,15.97
2022-10-17T20:05:57.028Z,15.98
2022-10-17T20:08:23.714Z,15.94
2022-10-17T20:10:50.507Z,15.89
2022-10-17T20:13:17.528Z,15.90
2022-10-17T20:15:54.351Z,15.87
2022-10-17T20:18:22.626Z,15.90
2022-10-17T20:20:49.885Z,15.85
2022-10-17T20:23:16.785Z,15.82
2022-10-17T20:25:43.809Z,15.80
2022-10-17T20:28:11.036Z,15.79
2022-10-17T20:30:42.742Z,15.78
2022-10-17T20:33:09.606Z,15.78
2022-10-17T20:35:41.406Z,15.78
2022-10-17T20:38:08.318Z,15.80
2022-10-17T20:40:35.809Z,15.75
2022-10-17T20:43:07.644Z,15.75
2022-10-17T20:48:30.865Z,15.72
2022-10-17T20:50:58.144Z,15.73
2022-10-17T20:53:36.541Z,15.74
2022-10-17T20:56:09.796Z,15.70
2022-10-17T20:58:36.635Z,15.65
2022-10-17T21:01:08.533Z,15.71
2022-10-17T21:03:39.820Z,15.67
2022-10-17T21:06:10.093Z,15.67
2022-10-17T21:08:36.640Z,15.69
2022-10-17T21:11:15.300Z,15.66
2022-10-17T21:13:42.169Z,15.64
2022-10-17T21:16:11.685Z,15.65
2022-10-17T21:18:38.737Z,15.69
2022-10-17T21:21:17.296Z,15.70
2022-10-17T21:23:46.408Z,15.70
2022-10-17T21:26:13.709Z,15.70
2022-10-17T21:28:41.350Z,15.65
2022-10-17T21:31:14.333Z,15.64
2022-10-17T21:33:42.631Z,15.64
2022-10-17T21:36:10.515Z,15.62
2022-10-17T21:38:38.807Z,15.60
2022-10-17T21:41:07.444Z,15.62
2022-10-17T21:43:34.926Z,15.60
2022-10-17T21:46:03.727Z,15.60
2022-10-17T21:48:30.280Z,15.59
2022-10-17T21:51:02.422Z,15.62
2022-10-17T21:53:28.988Z,15.63
2022-10-17T21:55:59.582Z,15.67
2022-10-17T21:58:26.587Z,15.69
2022-10-17T22:00:53.368Z,15.63
2022-10-17T22:03:19.948Z,15.66
2022-10-17T22:05:46.558Z,15.64
2022-10-17T22:08:13.453Z,15.63
2022-10-17T22:10:40.869Z,15.63
2022-10-17T22:13:07.409Z,15.60
2022-10-17T22:15:34.032Z,15.59
2022-10-17T22:18:00.565Z,15.62
2022-10-17T22:20:27.151Z,15.60
2022-10-17T22:22:53.873Z,15.60
2022-10-17T22:25:20.609Z,15.57
2022-10-17T22:27:47.351Z,15.55
2022-10-17T22:30:13.969Z,15.51
2022-10-17T22:32:40.573Z,15.50
2022-10-17T22:35:07.798Z,15.52
2022-10-17T22:37:34.388Z,15.53
2022-10-17T22:40:00.908Z,15.50
2022-10-17T22:42:31.283Z,15.50
2022-10-17T22:44:57.925Z,15.48
2022-10-17T22:47:24.470Z,15.45
2022-10-17T22:49:51.017Z,15.47
2022-10-17T22:52:17.583Z,15.46
2022-10-17T22:54:44.152Z,15.46
2022-10-17T22:57:10.703Z,15.43
2022-10-17T22:59:37.272Z,15.41
2022-10-17T23:02:03.940Z,15.41
2022-10-17T23:04:30.628Z,15.44
2022-10-17T23:06:57.232Z,15.43
2022-10-17T23:09:23.849Z,15.43
2022-10-17T23:11:50.419Z,15.40
2022-10-17T23:14:17.357Z,15.40
2022-10-17T23:16:43.924Z,15.41
2022-10-17T23:19:10.453Z,15.41
2022-10-17T23:21:37.025Z,15.41
2022-10-17T23:24:03.632Z,15.39
2022-10-17T23:26:30.200Z,15.38
2022-10-17T23:28:56.882Z,15.38
2022-10-17T23:31:23.868Z,15.36
2022-10-17T23:33:50.476Z,15.36
2022-10-17T23:36:19.894Z,15.34
2022-10-17T23:38:47.904Z,15.29
2022-10-17T23:41:15.786Z,15.27
2022-10-17T23:43:43.631Z,15.27
2022-10-17T23:46:10.540Z,15.26
2022-10-17T23:48:38.519Z,15.25
2022-10-17T23:51:06.040Z,15.25
2022-10-17T23:53:32.716Z,15.25
2022-10-17T23:55:59.732Z,15.25
2022-10-17T23:58:26.385Z,15.20
